sensor_id;sensor_type;location;lat;lon;timestamp;pressure;altitude;pressure_sealevel;temperature;humidity
36242;BME280;22283;42.748;12.732;2023-03-20T00:02:37;98437.91;;;11.37;100.00
36242;BME280;22283;42.748;12.732;2023-03-20T00:07:37;98440.25;;;11.29;100.00
36242;BME280;22283;42.748;12.732;2023-03-20T00:12:38;98447.22;;;11.30;100.00
36242;BME280;22283;42.748;12.732;2023-03-20T00:17:39;98439.81;;;11.22;100.00
36242;BME280;22283;42.748;12.732;2023-03-20T00:22:40;98436.44;;;11.20;100.00
36242;BME280;22283;42.748;12.732;2023-03-20T00:27:41;98443.84;;;11.15;100.00
36242;BME280;22283;42.748;12.732;2023-03-20T00:32:43;98442.38;;;11.11;100.00
36242;BME280;22283;42.748;12.732;2023-03-20T00:37:44;98442.28;;;11.13;100.00
36242;BME280;22283;42.748;12.732;2023-03-20T00:42:54;98441.22;;;11.15;100.00
36242;BME280;22283;42.748;12.732;2023-03-20T00:47:57;98429.66;;;11.16;100.00
36242;BME280;22283;42.748;12.732;2023-03-20T00:52:58;98433.06;;;11.18;100.00
36242;BME280;22283;42.748;12.732;2023-03-20T00:58:01;98434.66;;;11.08;100.00
36242;BME280;22283;42.748;12.732;2023-03-20T01:03:10;98416.56;;;11.02;100.00
36242;BME280;22283;42.748;12.732;2023-03-20T01:08:23;98422.06;;;10.99;100.00
36242;BME280;22283;42.748;12.732;2023-03-20T01:13:29;98412.75;;;11.06;100.00
36242;BME280;22283;42.748;12.732;2023-03-20T01:18:30;98423.53;;;11.03;100.00
36242;BME280;22283;42.748;12.732;2023-03-20T01:23:31;98418.44;;;11.00;100.00
36242;BME280;22283;42.748;12.732;2023-03-20T01:28:32;98408.09;;;10.97;100.00
36242;BME280;22283;42.748;12.732;2023-03-20T01:33:33;98402.06;;;10.95;100.00
36242;BME280;22283;42.748;12.732;2023-03-20T01:38:33;98399.63;;;10.92;100.00
36242;BME280;22283;42.748;12.732;2023-03-20T01:43:34;98397.09;;;10.90;100.00
36242;BME280;22283;42.748;12.732;2023-03-20T01:48:57;98381.84;;;10.94;100.00
36242;BME280;22283;42.748;12.732;2023-03-20T01:54:12;98375.91;;;10.90;100.00
36242;BME280;22283;42.748;12.732;2023-03-20T01:59:43;98364.91;;;10.83;100.00
36242;BME280;22283;42.748;12.732;2023-03-20T02:04:47;98363.22;;;10.82;100.00
36242;BME280;22283;42.748;12.732;2023-03-20T02:09:51;98359.81;;;10.80;100.00
36242;BME280;22283;42.748;12.732;2023-03-20T02:14:59;98350.41;;;10.76;100.00
36242;BME280;22283;42.748;12.732;2023-03-20T03:04:04;98269.34;;;10.63;100.00
36242;BME280;22283;42.748;12.732;2023-03-20T03:09:51;98254.66;;;10.58;100.00
36242;BME280;22283;42.748;12.732;2023-03-20T03:14:59;98247.78;;;10.56;100.00
36242;BME280;22283;42.748;12.732;2023-03-20T03:20:05;98255.00;;;10.54;100.00
36242;BME280;22283;42.748;12.732;2023-03-20T03:25:11;98252.09;;;10.57;100.00
36242;BME280;22283;42.748;12.732;2023-03-20T03:30:24;98247.47;;;10.48;100.00
36242;BME280;22283;42.748;12.732;2023-03-20T03:35:28;98264.81;;;10.52;100.00
36242;BME280;22283;42.748;12.732;2023-03-20T03:40:34;98267.97;;;10.57;100.00
36242;BME280;22283;42.748;12.732;2023-03-20T03:45:48;98261.78;;;10.45;100.00
36242;BME280;22283;42.748;12.732;2023-03-20T03:50:55;98272.66;;;10.41;100.00
36242;BME280;22283;42.748;12.732;2023-03-20T03:56:01;98276.72;;;10.33;100.00
36242;BME280;22283;42.748;12.732;2023-03-20T04:01:06;98266.53;;;10.27;100.00
36242;BME280;22283;42.748;12.732;2023-03-20T04:06:14;98265.88;;;10.24;100.00
36242;BME280;22283;42.748;12.732;2023-03-20T04:11:18;98255.97;;;10.27;100.00
36242;BME280;22283;42.748;12.732;2023-03-20T04:16:20;98256.81;;;10.28;100.00
36242;BME280;22283;42.748;12.732;2023-03-20T04:21:22;98263.16;;;10.25;100.00
36242;BME280;22283;42.748;12.732;2023-03-20T04:26:25;98256.47;;;10.32;100.00
36242;BME280;22283;42.748;12.732;2023-03-20T04:31:27;98247.72;;;10.32;100.00
36242;BME280;22283;42.748;12.732;2023-03-20T04:36:48;98247.81;;;10.30;100.00
36242;BME280;22283;42.748;12.732;2023-03-20T04:41:50;98250.78;;;10.39;100.00
36242;BME280;22283;42.748;12.732;2023-03-20T04:46:52;98244.53;;;10.40;100.00
36242;BME280;22283;42.748;12.732;2023-03-20T04:51:54;98239.13;;;10.41;100.00
36242;BME280;22283;42.748;12.732;2023-03-20T04:57:09;98235.22;;;10.47;100.00
36242;BME280;22283;42.748;12.732;2023-03-20T05:02:13;98229.91;;;10.47;100.00
36242;BME280;22283;42.748;12.732;2023-03-20T05:07:15;98243.81;;;10.38;100.00
36242;BME280;22283;42.748;12.732;2023-03-20T05:12:32;98236.41;;;10.30;100.00
36242;BME280;22283;42.748;12.732;2023-03-20T05:17:42;98237.84;;;10.21;100.00
36242;BME280;22283;42.748;12.732;2023-03-20T05:23:12;98231.84;;;10.19;100.00
36242;BME280;22283;42.748;12.732;2023-03-20T05:28:23;98229.06;;;10.21;100.00
36242;BME280;22283;42.748;12.732;2023-03-20T05:33:40;98231.31;;;10.40;100.00
36242;BME280;22283;42.748;12.732;2023-03-20T05:38:50;98223.81;;;10.33;100.00
36242;BME280;22283;42.748;12.732;2023-03-20T05:44:19;98215.31;;;10.41;100.00
36242;BME280;22283;42.748;12.732;2023-03-20T05:49:39;98201.97;;;10.55;100.00
36242;BME280;22283;42.748;12.732;2023-03-20T05:54:40;98205.22;;;10.59;100.00
36242;BME280;22283;42.748;12.732;2023-03-20T06:00:04;98200.28;;;10.54;100.00
36242;BME280;22283;42.748;12.732;2023-03-20T06:05:14;98190.53;;;10.55;100.00
36242;BME280;22283;42.748;12.732;2023-03-20T06:10:23;98186.72;;;10.59;100.00
36242;BME280;22283;42.748;12.732;2023-03-20T06:15:26;98195.56;;;10.71;100.00
36242;BME280;22283;42.748;12.732;2023-03-20T06:20:35;98199.88;;;10.72;100.00
36242;BME280;22283;42.748;12.732;2023-03-20T06:25:37;98207.19;;;10.81;100.00
36242;BME280;22283;42.748;12.732;2023-03-20T06:30:38;98210.44;;;10.84;100.00
36242;BME280;22283;42.748;12.732;2023-03-20T06:35:41;98218.78;;;10.91;100.00
36242;BME280;22283;42.748;12.732;2023-03-20T06:40:42;98224.69;;;10.95;100.00
36242;BME280;22283;42.748;12.732;2023-03-20T06:45:45;98230.03;;;11.06;100.00
36242;BME280;22283;42.748;12.732;2023-03-20T06:51:00;98232.75;;;11.17;100.00
36242;BME280;22283;42.748;12.732;2023-03-20T06:56:09;98243.78;;;11.35;100.00
36242;BME280;22283;42.748;12.732;2023-03-20T07:01:15;98246.34;;;11.48;100.00
36242;BME280;22283;42.748;12.732;2023-03-20T07:06:17;98261.88;;;11.41;100.00
36242;BME280;22283;42.748;12.732;2023-03-20T07:11:18;98267.88;;;11.43;100.00
36242;BME280;22283;42.748;12.732;2023-03-20T07:16:19;98276.56;;;11.45;100.00
36242;BME280;22283;42.748;12.732;2023-03-20T07:21:21;98280.56;;;11.51;100.00
36242;BME280;22283;42.748;12.732;2023-03-20T07:26:22;98289.69;;;11.47;100.00
36242;BME280;22283;42.748;12.732;2023-03-20T07:31:26;98292.53;;;11.32;100.00
36242;BME280;22283;42.748;12.732;2023-03-20T07:36:54;98312.47;;;11.01;100.00
36242;BME280;22283;42.748;12.732;2023-03-20T07:41:56;98307.34;;;10.74;100.00
36242;BME280;22283;42.748;12.732;2023-03-20T07:47:10;98312.88;;;10.46;100.00
36242;BME280;22283;42.748;12.732;2023-03-20T07:52:11;98314.06;;;10.42;100.00
36242;BME280;22283;42.748;12.732;2023-03-20T07:57:11;98321.03;;;10.43;100.00
36242;BME280;22283;42.748;12.732;2023-03-20T08:02:16;98325.56;;;10.41;100.00
36242;BME280;22283;42.748;12.732;2023-03-20T08:07:17;98326.00;;;10.34;100.00
36242;BME280;22283;42.748;12.732;2023-03-20T08:12:17;98331.09;;;10.38;100.00
36242;BME280;22283;42.748;12.732;2023-03-20T08:17:18;98334.91;;;10.33;100.00
36242;BME280;22283;42.748;12.732;2023-03-20T08:22:18;98340.19;;;10.33;100.00
36242;BME280;22283;42.748;12.732;2023-03-20T08:27:20;98344.72;;;10.31;100.00
36242;BME280;22283;42.748;12.732;2023-03-20T08:32:20;98345.13;;;10.25;100.00
36242;BME280;22283;42.748;12.732;2023-03-20T08:37:21;98350.97;;;10.30;100.00
36242;BME280;22283;42.748;12.732;2023-03-20T08:42:21;98346.41;;;10.32;100.00
36242;BME280;22283;42.748;12.732;2023-03-20T08:47:22;98350.84;;;10.32;100.00
36242;BME280;22283;42.748;12.732;2023-03-20T08:52:23;98353.41;;;10.33;100.00
36242;BME280;22283;42.748;12.732;2023-03-20T08:57:23;98346.19;;;10.48;100.00
36242;BME280;22283;42.748;12.732;2023-03-20T09:02:24;98353.38;;;10.59;100.00
36242;BME280;22283;42.748;12.732;2023-03-20T09:07:25;98358.34;;;10.64;100.00
36242;BME280;22283;42.748;12.732;2023-03-20T09:12:25;98364.06;;;10.70;100.00
36242;BME280;22283;42.748;12.732;2023-03-20T09:17:26;98366.28;;;10.76;100.00
36242;BME280;22283;42.748;12.732;2023-03-20T09:22:27;98370.00;;;10.48;100.00
36242;BME280;22283;42.748;12.732;2023-03-20T09:27:27;98373.59;;;10.47;100.00
36242;BME280;22283;42.748;12.732;2023-03-20T09:32:28;98374.88;;;10.42;100.00
36242;BME280;22283;42.748;12.732;2023-03-20T09:37:29;98369.69;;;10.40;100.00
36242;BME280;22283;42.748;12.732;2023-03-20T09:42:44;98377.00;;;10.49;100.00
36242;BME280;22283;42.748;12.732;2023-03-20T09:47:55;98381.00;;;10.55;100.00
36242;BME280;22283;42.748;12.732;2023-03-20T09:58:14;98373.06;;;10.55;100.00
36242;BME280;22283;42.748;12.732;2023-03-20T10:03:19;98363.44;;;10.79;100.00
36242;BME280;22283;42.748;12.732;2023-03-20T10:08:25;98356.81;;;11.11;100.00
36242;BME280;22283;42.748;12.732;2023-03-20T10:18:39;98363.78;;;11.72;100.00
36242;BME280;22283;42.748;12.732;2023-03-20T10:29:15;98358.97;;;12.37;100.00
36242;BME280;22283;42.748;12.732;2023-03-20T10:34:25;98342.56;;;12.54;100.00
36242;BME280;22283;42.748;12.732;2023-03-20T10:44:39;98308.69;;;12.58;92.15
36242;BME280;22283;42.748;12.732;2023-03-20T10:49:45;98311.94;;;12.72;94.74
36242;BME280;22283;42.748;12.732;2023-03-20T10:54:55;98302.53;;;12.79;90.96
36242;BME280;22283;42.748;12.732;2023-03-20T10:59:58;98304.56;;;12.87;88.81
36242;BME280;22283;42.748;12.732;2023-03-20T11:05:00;98294.34;;;13.37;89.90
36242;BME280;22283;42.748;12.732;2023-03-20T11:20:17;98277.88;;;13.96;76.89
36242;BME280;22283;42.748;12.732;2023-03-20T11:25:24;98280.53;;;13.96;81.18
36242;BME280;22283;42.748;12.732;2023-03-20T11:30:27;98282.91;;;13.90;81.06
36242;BME280;22283;42.748;12.732;2023-03-20T11:35:29;98284.63;;;14.00;82.60
36242;BME280;22283;42.748;12.732;2023-03-20T11:40:32;98287.47;;;14.09;83.03
36242;BME280;22283;42.748;12.732;2023-03-20T11:45:34;98276.84;;;13.88;82.69
36242;BME280;22283;42.748;12.732;2023-03-20T11:50:42;98264.72;;;13.95;84.65
36242;BME280;22283;42.748;12.732;2023-03-20T11:56:02;98259.00;;;13.99;85.66
36242;BME280;22283;42.748;12.732;2023-03-20T12:01:04;98250.56;;;14.15;83.19
36242;BME280;22283;42.748;12.732;2023-03-20T12:06:36;98243.19;;;14.28;82.23
36242;BME280;22283;42.748;12.732;2023-03-20T12:11:49;98237.97;;;14.17;81.25
36242;BME280;22283;42.748;12.732;2023-03-20T12:16:58;98228.28;;;14.37;79.74
36242;BME280;22283;42.748;12.732;2023-03-20T12:22:21;98219.63;;;14.14;77.96
36242;BME280;22283;42.748;12.732;2023-03-20T12:27:28;98221.47;;;14.23;78.53
36242;BME280;22283;42.748;12.732;2023-03-20T12:32:34;98207.28;;;14.44;73.43
36242;BME280;22283;42.748;12.732;2023-03-20T12:37:36;98191.09;;;14.57;66.73
36242;BME280;22283;42.748;12.732;2023-03-20T12:47:56;98180.53;;;14.86;67.59
36242;BME280;22283;42.748;12.732;2023-03-20T12:58:32;98176.56;;;14.70;68.96
36242;BME280;22283;42.748;12.732;2023-03-20T13:08:50;98160.72;;;14.79;69.23
36242;BME280;22283;42.748;12.732;2023-03-20T13:13:57;98147.06;;;14.52;70.83
36242;BME280;22283;42.748;12.732;2023-03-20T13:19:06;98147.88;;;14.93;69.38
36242;BME280;22283;42.748;12.732;2023-03-20T13:24:21;98137.63;;;14.89;68.52
36242;BME280;22283;42.748;12.732;2023-03-20T13:29:32;98144.91;;;14.87;70.94
36242;BME280;22283;42.748;12.732;2023-03-20T13:45:25;98133.41;;;15.06;73.35
36242;BME280;22283;42.748;12.732;2023-03-20T13:55:44;98128.50;;;14.82;75.76
36242;BME280;22283;42.748;12.732;2023-03-20T14:11:44;98135.94;;;14.97;79.07
36242;BME280;22283;42.748;12.732;2023-03-20T14:16:44;98140.72;;;15.13;79.03
36242;BME280;22283;42.748;12.732;2023-03-20T14:21:46;98135.38;;;14.94;79.87
36242;BME280;22283;42.748;12.732;2023-03-20T14:27:00;98138.41;;;14.60;81.68
36242;BME280;22283;42.748;12.732;2023-03-20T14:42:42;98140.56;;;14.36;83.12
36242;BME280;22283;42.748;12.732;2023-03-20T14:48:05;98147.53;;;14.27;83.21
36242;BME280;22283;42.748;12.732;2023-03-20T14:53:21;98139.34;;;14.09;83.33
36242;BME280;22283;42.748;12.732;2023-03-20T15:03:40;98133.69;;;13.62;84.74
36242;BME280;22283;42.748;12.732;2023-03-20T15:08:46;98130.56;;;13.36;86.82
36242;BME280;22283;42.748;12.732;2023-03-20T15:13:49;98135.94;;;13.14;87.77
36242;BME280;22283;42.748;12.732;2023-03-20T15:18:52;98122.41;;;12.96;91.41
36242;BME280;22283;42.748;12.732;2023-03-20T15:23:53;98124.72;;;12.89;94.13
36242;BME280;22283;42.748;12.732;2023-03-20T15:28:59;98129.25;;;12.98;93.27
36242;BME280;22283;42.748;12.732;2023-03-20T15:34:02;98132.25;;;13.05;93.18
36242;BME280;22283;42.748;12.732;2023-03-20T15:39:13;98130.97;;;12.99;94.54
36242;BME280;22283;42.748;12.732;2023-03-20T15:49:19;98134.19;;;12.71;94.27
36242;BME280;22283;42.748;12.732;2023-03-20T15:54:20;98141.22;;;12.61;96.41
36242;BME280;22283;42.748;12.732;2023-03-20T15:59:24;98142.66;;;12.65;97.03
36242;BME280;22283;42.748;12.732;2023-03-20T16:04:25;98149.53;;;12.67;97.07
36242;BME280;22283;42.748;12.732;2023-03-20T16:09:29;98143.72;;;12.73;97.97
36242;BME280;22283;42.748;12.732;2023-03-20T16:14:31;98149.22;;;12.93;96.21
36242;BME280;22283;42.748;12.732;2023-03-20T16:19:33;98148.66;;;13.10;95.48
36242;BME280;22283;42.748;12.732;2023-03-20T16:24:36;98146.19;;;13.18;93.97
36242;BME280;22283;42.748;12.732;2023-03-20T16:29:41;98141.13;;;13.26;91.38
36242;BME280;22283;42.748;12.732;2023-03-20T16:34:47;98145.09;;;13.32;90.53
36242;BME280;22283;42.748;12.732;2023-03-20T16:40:01;98138.47;;;13.26;91.77
36242;BME280;22283;42.748;12.732;2023-03-20T16:45:05;98142.09;;;13.14;92.09
36242;BME280;22283;42.748;12.732;2023-03-20T16:55:23;98154.50;;;12.61;94.25
36242;BME280;22283;42.748;12.732;2023-03-20T17:00:30;98161.66;;;12.38;96.57
36242;BME280;22283;42.748;12.732;2023-03-20T17:10:56;98171.09;;;11.97;100.00
36242;BME280;22283;42.748;12.732;2023-03-20T17:15:56;98171.25;;;11.82;100.00
36242;BME280;22283;42.748;12.732;2023-03-20T17:20:58;98182.84;;;11.81;100.00
36242;BME280;22283;42.748;12.732;2023-03-20T17:25:59;98175.34;;;11.64;100.00
36242;BME280;22283;42.748;12.732;2023-03-20T17:31:00;98177.84;;;11.54;100.00
36242;BME280;22283;42.748;12.732;2023-03-20T17:36:14;98200.47;;;11.47;100.00
36242;BME280;22283;42.748;12.732;2023-03-20T17:41:16;98203.06;;;11.25;100.00
36242;BME280;22283;42.748;12.732;2023-03-20T17:46:28;98205.75;;;10.88;100.00
36242;BME280;22283;42.748;12.732;2023-03-20T17:51:29;98203.69;;;10.44;100.00
36242;BME280;22283;42.748;12.732;2023-03-20T17:56:30;98225.91;;;10.28;100.00
36242;BME280;22283;42.748;12.732;2023-03-20T18:01:31;98225.28;;;10.12;100.00
36242;BME280;22283;42.748;12.732;2023-03-20T18:06:32;98227.09;;;9.99;100.00
36242;BME280;22283;42.748;12.732;2023-03-20T18:11:33;98230.59;;;9.87;100.00
36242;BME280;22283;42.748;12.732;2023-03-20T18:16:33;98233.09;;;9.88;100.00
36242;BME280;22283;42.748;12.732;2023-03-20T18:21:34;98235.63;;;9.90;100.00
36242;BME280;22283;42.748;12.732;2023-03-20T18:26:35;98235.63;;;9.90;100.00
36242;BME280;22283;42.748;12.732;2023-03-20T18:31:35;98237.56;;;9.88;100.00
36242;BME280;22283;42.748;12.732;2023-03-20T18:36:36;98235.88;;;9.87;100.00
36242;BME280;22283;42.748;12.732;2023-03-20T18:41:37;98236.78;;;9.85;100.00
36242;BME280;22283;42.748;12.732;2023-03-20T18:46:37;98244.84;;;9.84;100.00
36242;BME280;22283;42.748;12.732;2023-03-20T18:51:38;98243.88;;;9.85;100.00
36242;BME280;22283;42.748;12.732;2023-03-20T18:56:38;98237.94;;;9.81;100.00
36242;BME280;22283;42.748;12.732;2023-03-20T19:01:39;98248.53;;;9.81;100.00
36242;BME280;22283;42.748;12.732;2023-03-20T19:06:40;98246.13;;;9.78;100.00
36242;BME280;22283;42.748;12.732;2023-03-20T19:11:41;98247.78;;;9.79;100.00
36242;BME280;22283;42.748;12.732;2023-03-20T19:16:41;98250.44;;;9.79;100.00
36242;BME280;22283;42.748;12.732;2023-03-20T19:21:42;98240.06;;;9.76;100.00
36242;BME280;22283;42.748;12.732;2023-03-20T19:26:43;98252.31;;;9.77;100.00
36242;BME280;22283;42.748;12.732;2023-03-20T19:31:44;98251.47;;;9.77;100.00
36242;BME280;22283;42.748;12.732;2023-03-20T19:36:45;98238.38;;;9.75;100.00
36242;BME280;22283;42.748;12.732;2023-03-20T19:41:48;98244.50;;;9.76;100.00
36242;BME280;22283;42.748;12.732;2023-03-20T19:46:49;98248.13;;;9.75;100.00
36242;BME280;22283;42.748;12.732;2023-03-20T19:51:50;98240.06;;;9.76;100.00
36242;BME280;22283;42.748;12.732;2023-03-20T19:56:50;98248.75;;;9.78;100.00
36242;BME280;22283;42.748;12.732;2023-03-20T20:01:51;98245.03;;;9.81;100.00
36242;BME280;22283;42.748;12.732;2023-03-20T20:06:53;98255.72;;;9.79;100.00
36242;BME280;22283;42.748;12.732;2023-03-20T20:11:53;98250.00;;;9.85;100.00
36242;BME280;22283;42.748;12.732;2023-03-20T20:16:54;98249.06;;;9.87;100.00
36242;BME280;22283;42.748;12.732;2023-03-20T20:21:55;98257.22;;;9.83;100.00
36242;BME280;22283;42.748;12.732;2023-03-20T20:26:56;98247.69;;;9.81;100.00
36242;BME280;22283;42.748;12.732;2023-03-20T20:31:58;98254.03;;;9.78;100.00
36242;BME280;22283;42.748;12.732;2023-03-20T20:36:59;98247.69;;;9.81;100.00
36242;BME280;22283;42.748;12.732;2023-03-20T20:42:00;98260.88;;;9.81;100.00
36242;BME280;22283;42.748;12.732;2023-03-20T20:47:00;98250.44;;;9.79;100.00
36242;BME280;22283;42.748;12.732;2023-03-20T20:52:01;98254.03;;;9.78;100.00
36242;BME280;22283;42.748;12.732;2023-03-20T20:57:03;98244.19;;;9.80;100.00
36242;BME280;22283;42.748;12.732;2023-03-20T21:02:04;98246.63;;;9.83;100.00
36242;BME280;22283;42.748;12.732;2023-03-20T21:07:11;98238.06;;;9.80;100.00
36242;BME280;22283;42.748;12.732;2023-03-20T21:12:12;98245.88;;;9.81;100.00
36242;BME280;22283;42.748;12.732;2023-03-20T21:17:14;98241.34;;;9.83;100.00
36242;BME280;22283;42.748;12.732;2023-03-20T21:22:15;98240.84;;;9.78;100.00
36242;BME280;22283;42.748;12.732;2023-03-20T21:27:18;98245.16;;;9.79;100.00
36242;BME280;22283;42.748;12.732;2023-03-20T21:32:19;98234.78;;;9.76;100.00
36242;BME280;22283;42.748;12.732;2023-03-20T21:37:20;98235.63;;;9.77;100.00
36242;BME280;22283;42.748;12.732;2023-03-20T21:42:21;98224.03;;;9.79;100.00
36242;BME280;22283;42.748;12.732;2023-03-20T21:47:21;98226.88;;;9.76;100.00
36242;BME280;22283;42.748;12.732;2023-03-20T21:52:23;98221.25;;;9.68;100.00
36242;BME280;22283;42.748;12.732;2023-03-20T21:57:23;98213.44;;;9.67;100.00
36242;BME280;22283;42.748;12.732;2023-03-20T22:02:24;98217.53;;;9.58;100.00
36242;BME280;22283;42.748;12.732;2023-03-20T22:07:25;98210.75;;;9.54;100.00
36242;BME280;22283;42.748;12.732;2023-03-20T22:12:26;98187.44;;;9.48;100.00
36242;BME280;22283;42.748;12.732;2023-03-20T22:17:27;98191.22;;;9.44;100.00
36242;BME280;22283;42.748;12.732;2023-03-20T22:22:28;98197.41;;;9.30;100.00
36242;BME280;22283;42.748;12.732;2023-03-20T22:27:28;98195.19;;;9.11;100.00
36242;BME280;22283;42.748;12.732;2023-03-20T22:32:29;98190.66;;;8.86;100.00
36242;BME280;22283;42.748;12.732;2023-03-20T22:37:30;98208.69;;;8.79;100.00
36242;BME280;22283;42.748;12.732;2023-03-20T22:42:31;98202.09;;;8.72;100.00
36242;BME280;22283;42.748;12.732;2023-03-20T22:47:33;98207.75;;;8.66;100.00
36242;BME280;22283;42.748;12.732;2023-03-20T22:52:33;98196.66;;;8.61;100.00
36242;BME280;22283;42.748;12.732;2023-03-20T22:57:34;98194.03;;;8.61;100.00
36242;BME280;22283;42.748;12.732;2023-03-20T23:02:35;98202.13;;;8.58;100.00
36242;BME280;22283;42.748;12.732;2023-03-20T23:07:36;98199.50;;;8.58;100.00
36242;BME280;22283;42.748;12.732;2023-03-20T23:12:38;98193.84;;;8.64;100.00
36242;BME280;22283;42.748;12.732;2023-03-20T23:17:38;98196.91;;;8.71;100.00
36242;BME280;22283;42.748;12.732;2023-03-20T23:22:39;98197.19;;;8.80;100.00
36242;BME280;22283;42.748;12.732;2023-03-20T23:27:40;98186.63;;;8.80;100.00
36242;BME280;22283;42.748;12.732;2023-03-20T23:32:41;98184.34;;;8.89;100.00
36242;BME280;22283;42.748;12.732;2023-03-20T23:37:41;98176.94;;;8.94;100.00
36242;BME280;22283;42.748;12.732;2023-03-20T23:42:42;98186.78;;;8.92;100.00
36242;BME280;22283;42.748;12.732;2023-03-20T23:47:43;98189.81;;;8.85;100.00
36242;BME280;22283;42.748;12.732;2023-03-20T23:52:44;98189.94;;;8.97;100.00
36242;BME280;22283;42.748;12.732;2023-03-20T23:57:44;98190.72;;;8.99;100.00
